sensor_id;sensor_type;location;lat;lon;timestamp;temperature;humidity
68011;DHT22;54794;48.348;7.878;2022-09-12T00:00:43;17.80;61.00
68011;DHT22;54794;48.348;7.878;2022-09-12T00:03:10;17.70;61.00
68011;DHT22;54794;48.348;7.878;2022-09-12T00:05:45;17.70;61.10
68011;DHT22;54794;48.348;7.878;2022-09-12T00:08:13;17.70;62.00
68011;DHT22;54794;48.348;7.878;2022-09-12T00:10:42;17.70;61.40
68011;DHT22;54794;48.348;7.878;2022-09-12T00:13:10;17.70;61.50
68011;DHT22;54794;48.348;7.878;2022-09-12T00:15:42;17.60;62.00
68011;DHT22;54794;48.348;7.878;2022-09-12T00:18:13;17.60;62.00
68011;DHT22;54794;48.348;7.878;2022-09-12T00:20:43;17.60;62.00
68011;DHT22;54794;48.348;7.878;2022-09-12T00:23:11;17.60;61.90
68011;DHT22;54794;48.348;7.878;2022-09-12T00:25:43;17.60;61.80
68011;DHT22;54794;48.348;7.878;2022-09-12T00:28:13;17.60;62.20
68011;DHT22;54794;48.348;7.878;2022-09-12T00:30:43;17.60;61.90
68011;DHT22;54794;48.348;7.878;2022-09-12T00:33:12;17.60;61.90
68011;DHT22;54794;48.348;7.878;2022-09-12T00:38:09;17.60;62.00
68011;DHT22;54794;48.348;7.878;2022-09-12T00:40:36;17.50;61.70
68011;DHT22;54794;48.348;7.878;2022-09-12T00:43:04;17.50;61.90
68011;DHT22;54794;48.348;7.878;2022-09-12T00:45:31;17.50;62.00
68011;DHT22;54794;48.348;7.878;2022-09-12T00:48:01;17.50;62.00
68011;DHT22;54794;48.348;7.878;2022-09-12T00:50:30;17.50;62.20
68011;DHT22;54794;48.348;7.878;2022-09-12T00:53:03;17.40;62.20
68011;DHT22;54794;48.348;7.878;2022-09-12T00:55:40;17.40;62.60
68011;DHT22;54794;48.348;7.878;2022-09-12T00:58:17;17.40;62.60
68011;DHT22;54794;48.348;7.878;2022-09-12T01:00:51;17.40;63.50
68011;DHT22;54794;48.348;7.878;2022-09-12T01:03:21;17.30;62.40
68011;DHT22;54794;48.348;7.878;2022-09-12T01:08:32;17.30;63.30
68011;DHT22;54794;48.348;7.878;2022-09-12T01:11:04;17.40;63.00
68011;DHT22;54794;48.348;7.878;2022-09-12T01:13:34;17.40;63.00
68011;DHT22;54794;48.348;7.878;2022-09-12T01:16:03;17.40;63.10
68011;DHT22;54794;48.348;7.878;2022-09-12T01:18:44;17.30;62.90
68011;DHT22;54794;48.348;7.878;2022-09-12T01:38:37;17.30;63.00
68011;DHT22;54794;48.348;7.878;2022-09-12T01:44:21;17.20;63.50
68011;DHT22;54794;48.348;7.878;2022-09-12T01:47:05;17.20;64.10
68011;DHT22;54794;48.348;7.878;2022-09-12T01:49:59;17.20;64.00
68011;DHT22;54794;48.348;7.878;2022-09-12T01:52:38;17.10;62.90
68011;DHT22;54794;48.348;7.878;2022-09-12T01:55:22;17.10;63.50
68011;DHT22;54794;48.348;7.878;2022-09-12T01:58:15;17.10;64.20
68011;DHT22;54794;48.348;7.878;2022-09-12T02:01:10;17.00;64.10
68011;DHT22;54794;48.348;7.878;2022-09-12T02:06:45;16.90;64.60
68011;DHT22;54794;48.348;7.878;2022-09-12T02:09:24;17.00;64.00
68011;DHT22;54794;48.348;7.878;2022-09-12T02:11:59;16.90;63.70
68011;DHT22;54794;48.348;7.878;2022-09-12T02:14:37;16.90;63.90
68011;DHT22;54794;48.348;7.878;2022-09-12T02:17:13;16.90;64.30
68011;DHT22;54794;48.348;7.878;2022-09-12T02:20:06;16.90;64.10
68011;DHT22;54794;48.348;7.878;2022-09-12T02:22:56;16.90;64.80
68011;DHT22;54794;48.348;7.878;2022-09-12T02:25:27;16.80;63.70
68011;DHT22;54794;48.348;7.878;2022-09-12T02:28:07;16.80;64.00
68011;DHT22;54794;48.348;7.878;2022-09-12T02:30:51;16.80;64.60
68011;DHT22;54794;48.348;7.878;2022-09-12T02:33:48;16.80;64.30
68011;DHT22;54794;48.348;7.878;2022-09-12T02:36:32;16.70;64.10
68011;DHT22;54794;48.348;7.878;2022-09-12T02:39:12;16.70;65.00
68011;DHT22;54794;48.348;7.878;2022-09-12T02:41:39;16.70;64.00
68011;DHT22;54794;48.348;7.878;2022-09-12T02:44:05;16.70;64.80
68011;DHT22;54794;48.348;7.878;2022-09-12T02:46:38;16.70;64.30
68011;DHT22;54794;48.348;7.878;2022-09-12T02:49:09;16.60;64.70
68011;DHT22;54794;48.348;7.878;2022-09-12T02:51:36;16.60;64.40
68011;DHT22;54794;48.348;7.878;2022-09-12T02:54:04;16.60;64.40
68011;DHT22;54794;48.348;7.878;2022-09-12T02:56:32;16.60;64.60
68011;DHT22;54794;48.348;7.878;2022-09-12T02:59:06;16.60;64.70
68011;DHT22;54794;48.348;7.878;2022-09-12T03:15:48;16.50;64.70
68011;DHT22;54794;48.348;7.878;2022-09-12T03:27:17;16.40;65.80
68011;DHT22;54794;48.348;7.878;2022-09-12T03:29:52;16.30;65.10
68011;DHT22;54794;48.348;7.878;2022-09-12T03:32:42;16.40;65.10
68011;DHT22;54794;48.348;7.878;2022-09-12T03:35:10;16.30;65.80
68011;DHT22;54794;48.348;7.878;2022-09-12T03:37:38;16.40;65.10
68011;DHT22;54794;48.348;7.878;2022-09-12T03:40:05;16.40;65.30
68011;DHT22;54794;48.348;7.878;2022-09-12T03:42:34;16.40;65.30
68011;DHT22;54794;48.348;7.878;2022-09-12T03:45:01;16.40;65.40
68011;DHT22;54794;48.348;7.878;2022-09-12T03:47:28;16.40;65.40
68011;DHT22;54794;48.348;7.878;2022-09-12T03:49:55;16.30;65.40
68011;DHT22;54794;48.348;7.878;2022-09-12T03:52:22;16.30;65.40
68011;DHT22;54794;48.348;7.878;2022-09-12T03:54:49;16.40;66.00
68011;DHT22;54794;48.348;7.878;2022-09-12T03:57:16;16.30;66.00
68011;DHT22;54794;48.348;7.878;2022-09-12T03:59:44;16.30;65.30
68011;DHT22;54794;48.348;7.878;2022-09-12T04:02:11;16.30;65.30
68011;DHT22;54794;48.348;7.878;2022-09-12T04:04:40;16.30;65.30
68011;DHT22;54794;48.348;7.878;2022-09-12T04:07:09;16.30;65.50
68011;DHT22;54794;48.348;7.878;2022-09-12T04:09:36;16.30;65.50
68011;DHT22;54794;48.348;7.878;2022-09-12T04:12:03;16.30;65.50
68011;DHT22;54794;48.348;7.878;2022-09-12T04:14:31;16.30;65.60
68011;DHT22;54794;48.348;7.878;2022-09-12T04:16:58;16.30;65.50
68011;DHT22;54794;48.348;7.878;2022-09-12T04:19:26;16.20;65.40
68011;DHT22;54794;48.348;7.878;2022-09-12T04:21:53;16.20;65.60
68011;DHT22;54794;48.348;7.878;2022-09-12T04:24:20;16.30;65.50
68011;DHT22;54794;48.348;7.878;2022-09-12T04:26:47;16.20;65.10
68011;DHT22;54794;48.348;7.878;2022-09-12T04:29:14;16.10;65.30
68011;DHT22;54794;48.348;7.878;2022-09-12T04:31:41;16.10;65.40
68011;DHT22;54794;48.348;7.878;2022-09-12T04:34:08;16.10;65.50
68011;DHT22;54794;48.348;7.878;2022-09-12T04:36:35;16.10;65.50
68011;DHT22;54794;48.348;7.878;2022-09-12T04:39:03;16.10;65.60
68011;DHT22;54794;48.348;7.878;2022-09-12T04:41:36;16.00;65.60
68011;DHT22;54794;48.348;7.878;2022-09-12T04:44:07;16.00;66.00
68011;DHT22;54794;48.348;7.878;2022-09-12T04:46:41;16.00;66.00
68011;DHT22;54794;48.348;7.878;2022-09-12T04:49:12;15.90;65.90
68011;DHT22;54794;48.348;7.878;2022-09-12T04:51:40;15.90;66.00
68011;DHT22;54794;48.348;7.878;2022-09-12T04:54:16;15.90;66.00
68011;DHT22;54794;48.348;7.878;2022-09-12T04:56:47;15.90;66.30
68011;DHT22;54794;48.348;7.878;2022-09-12T04:59:17;15.90;66.20
68011;DHT22;54794;48.348;7.878;2022-09-12T05:01:45;15.90;66.30
68011;DHT22;54794;48.348;7.878;2022-09-12T05:04:14;15.90;66.30
68011;DHT22;54794;48.348;7.878;2022-09-12T05:06:42;15.90;66.50
68011;DHT22;54794;48.348;7.878;2022-09-12T05:09:11;15.90;66.50
68011;DHT22;54794;48.348;7.878;2022-09-12T05:11:41;15.90;66.70
68011;DHT22;54794;48.348;7.878;2022-09-12T05:14:29;16.00;66.80
68011;DHT22;54794;48.348;7.878;2022-09-12T05:17:00;16.00;66.60
68011;DHT22;54794;48.348;7.878;2022-09-12T05:19:29;16.00;66.70
68011;DHT22;54794;48.348;7.878;2022-09-12T05:21:57;16.00;66.70
68011;DHT22;54794;48.348;7.878;2022-09-12T05:24:24;16.00;66.60
68011;DHT22;54794;48.348;7.878;2022-09-12T05:26:51;16.00;66.60
68011;DHT22;54794;48.348;7.878;2022-09-12T05:29:18;16.00;66.60
68011;DHT22;54794;48.348;7.878;2022-09-12T05:31:45;15.90;66.40
68011;DHT22;54794;48.348;7.878;2022-09-12T05:34:15;15.90;66.50
68011;DHT22;54794;48.348;7.878;2022-09-12T05:36:42;15.90;66.40
68011;DHT22;54794;48.348;7.878;2022-09-12T05:39:09;15.90;66.40
68011;DHT22;54794;48.348;7.878;2022-09-12T05:41:36;15.90;66.50
68011;DHT22;54794;48.348;7.878;2022-09-12T05:44:05;15.80;66.50
68011;DHT22;54794;48.348;7.878;2022-09-12T05:46:38;15.90;66.70
68011;DHT22;54794;48.348;7.878;2022-09-12T05:49:09;15.80;67.10
68011;DHT22;54794;48.348;7.878;2022-09-12T05:51:41;15.90;67.10
68011;DHT22;54794;48.348;7.878;2022-09-12T05:54:10;15.90;67.20
68011;DHT22;54794;48.348;7.878;2022-09-12T05:56:41;15.90;67.20
68011;DHT22;54794;48.348;7.878;2022-09-12T05:59:17;15.90;67.20
68011;DHT22;54794;48.348;7.878;2022-09-12T06:01:46;15.90;67.60
68011;DHT22;54794;48.348;7.878;2022-09-12T06:04:14;15.90;67.20
68011;DHT22;54794;48.348;7.878;2022-09-12T06:06:43;16.00;67.30
68011;DHT22;54794;48.348;7.878;2022-09-12T06:09:12;16.00;67.40
68011;DHT22;54794;48.348;7.878;2022-09-12T06:11:44;16.00;67.50
68011;DHT22;54794;48.348;7.878;2022-09-12T06:14:14;16.00;67.40
68011;DHT22;54794;48.348;7.878;2022-09-12T06:16:42;16.00;67.60
68011;DHT22;54794;48.348;7.878;2022-09-12T06:19:15;16.10;67.70
68011;DHT22;54794;48.348;7.878;2022-09-12T06:21:47;16.10;68.00
68011;DHT22;54794;48.348;7.878;2022-09-12T06:24:16;16.10;67.80
68011;DHT22;54794;48.348;7.878;2022-09-12T06:26:45;16.20;68.00
68011;DHT22;54794;48.348;7.878;2022-09-12T06:29:13;16.20;68.20
68011;DHT22;54794;48.348;7.878;2022-09-12T06:31:41;16.30;68.00
68011;DHT22;54794;48.348;7.878;2022-09-12T06:34:11;16.30;68.10
68011;DHT22;54794;48.348;7.878;2022-09-12T06:36:42;16.40;68.30
68011;DHT22;54794;48.348;7.878;2022-09-12T06:39:19;16.40;68.30
68011;DHT22;54794;48.348;7.878;2022-09-12T06:41:51;16.50;68.40
68011;DHT22;54794;48.348;7.878;2022-09-12T06:44:20;16.60;68.50
68011;DHT22;54794;48.348;7.878;2022-09-12T06:46:48;16.70;68.30
68011;DHT22;54794;48.348;7.878;2022-09-12T06:49:16;16.80;68.30
68011;DHT22;54794;48.348;7.878;2022-09-12T06:51:43;16.80;68.20
68011;DHT22;54794;48.348;7.878;2022-09-12T06:54:14;16.90;68.90
68011;DHT22;54794;48.348;7.878;2022-09-12T06:56:43;17.00;68.40
68011;DHT22;54794;48.348;7.878;2022-09-12T06:59:10;17.10;68.50
68011;DHT22;54794;48.348;7.878;2022-09-12T07:01:37;17.20;68.60
68011;DHT22;54794;48.348;7.878;2022-09-12T07:04:05;17.30;68.00
68011;DHT22;54794;48.348;7.878;2022-09-12T07:06:38;17.30;68.00
68011;DHT22;54794;48.348;7.878;2022-09-12T07:09:09;17.50;68.30
68011;DHT22;54794;48.348;7.878;2022-09-12T07:11:39;17.50;68.30
68011;DHT22;54794;48.348;7.878;2022-09-12T07:14:27;17.60;68.20
68011;DHT22;54794;48.348;7.878;2022-09-12T07:17:20;17.70;68.00
68011;DHT22;54794;48.348;7.878;2022-09-12T07:19:49;17.70;68.40
68011;DHT22;54794;48.348;7.878;2022-09-12T07:22:16;17.80;68.00
68011;DHT22;54794;48.348;7.878;2022-09-12T07:24:43;17.90;68.00
68011;DHT22;54794;48.348;7.878;2022-09-12T07:27:11;18.00;67.80
68011;DHT22;54794;48.348;7.878;2022-09-12T07:29:38;18.10;67.70
68011;DHT22;54794;48.348;7.878;2022-09-12T07:32:05;18.20;67.60
68011;DHT22;54794;48.348;7.878;2022-09-12T07:34:33;18.20;67.50
68011;DHT22;54794;48.348;7.878;2022-09-12T07:37:04;18.30;67.50
68011;DHT22;54794;48.348;7.878;2022-09-12T07:39:59;18.40;67.20
68011;DHT22;54794;48.348;7.878;2022-09-12T07:43:29;18.50;67.40
68011;DHT22;54794;48.348;7.878;2022-09-12T07:45:56;18.60;66.90
68011;DHT22;54794;48.348;7.878;2022-09-12T07:48:23;18.60;66.80
68011;DHT22;54794;48.348;7.878;2022-09-12T07:51:01;18.70;67.20
68011;DHT22;54794;48.348;7.878;2022-09-12T07:53:32;18.80;66.80
68011;DHT22;54794;48.348;7.878;2022-09-12T07:56:01;18.90;66.80
68011;DHT22;54794;48.348;7.878;2022-09-12T07:58:32;18.90;66.70
68011;DHT22;54794;48.348;7.878;2022-09-12T08:01:15;19.00;66.70
68011;DHT22;54794;48.348;7.878;2022-09-12T08:03:46;19.10;66.70
68011;DHT22;54794;48.348;7.878;2022-09-12T08:06:18;19.20;66.60
68011;DHT22;54794;48.348;7.878;2022-09-12T08:08:51;19.20;66.40
68011;DHT22;54794;48.348;7.878;2022-09-12T08:11:21;19.40;66.50
68011;DHT22;54794;48.348;7.878;2022-09-12T08:13:49;19.40;66.50
68011;DHT22;54794;48.348;7.878;2022-09-12T08:16:24;19.50;66.30
68011;DHT22;54794;48.348;7.878;2022-09-12T08:18:53;19.60;66.10
68011;DHT22;54794;48.348;7.878;2022-09-12T08:21:32;19.80;66.30
68011;DHT22;54794;48.348;7.878;2022-09-12T08:24:58;19.80;66.00
68011;DHT22;54794;48.348;7.878;2022-09-12T08:31:47;20.00;65.80
68011;DHT22;54794;48.348;7.878;2022-09-12T08:34:19;20.30;66.10
68011;DHT22;54794;48.348;7.878;2022-09-12T08:36:46;20.40;65.90
68011;DHT22;54794;48.348;7.878;2022-09-12T08:39:13;20.50;66.10
68011;DHT22;54794;48.348;7.878;2022-09-12T08:41:44;20.70;65.70
68011;DHT22;54794;48.348;7.878;2022-09-12T08:47:49;20.90;65.40
68011;DHT22;54794;48.348;7.878;2022-09-12T08:58:22;21.50;65.70
68011;DHT22;54794;48.348;7.878;2022-09-12T09:15:14;22.20;64.10
68011;DHT22;54794;48.348;7.878;2022-09-12T09:18:02;22.40;64.70
68011;DHT22;54794;48.348;7.878;2022-09-12T09:20:45;22.50;63.40
68011;DHT22;54794;48.348;7.878;2022-09-12T09:23:40;22.60;63.40
68011;DHT22;54794;48.348;7.878;2022-09-12T09:26:19;22.80;62.80
68011;DHT22;54794;48.348;7.878;2022-09-12T09:29:05;22.80;62.70
68011;DHT22;54794;48.348;7.878;2022-09-12T09:31:46;23.00;62.80
68011;DHT22;54794;48.348;7.878;2022-09-12T09:34:19;23.10;62.90
68011;DHT22;54794;48.348;7.878;2022-09-12T09:42:54;23.50;61.80
68011;DHT22;54794;48.348;7.878;2022-09-12T09:45:26;23.60;62.00
68011;DHT22;54794;48.348;7.878;2022-09-12T09:48:27;23.70;61.60
68011;DHT22;54794;48.348;7.878;2022-09-12T09:50:59;23.90;60.90
68011;DHT22;54794;48.348;7.878;2022-09-12T09:58:53;24.10;60.50
68011;DHT22;54794;48.348;7.878;2022-09-12T10:01:20;24.20;61.40
68011;DHT22;54794;48.348;7.878;2022-09-12T10:03:50;24.30;61.00
68011;DHT22;54794;48.348;7.878;2022-09-12T10:08:49;24.50;60.10
68011;DHT22;54794;48.348;7.878;2022-09-12T10:11:21;24.60;60.10
68011;DHT22;54794;48.348;7.878;2022-09-12T10:13:56;24.70;59.60
68011;DHT22;54794;48.348;7.878;2022-09-12T10:16:48;24.80;59.00
68011;DHT22;54794;48.348;7.878;2022-09-12T10:19:21;24.90;58.90
68011;DHT22;54794;48.348;7.878;2022-09-12T10:21:55;25.00;59.30
68011;DHT22;54794;48.348;7.878;2022-09-12T10:27:25;25.10;58.80
68011;DHT22;54794;48.348;7.878;2022-09-12T10:30:16;25.20;58.30
68011;DHT22;54794;48.348;7.878;2022-09-12T10:32:47;25.30;57.50
68011;DHT22;54794;48.348;7.878;2022-09-12T10:35:24;25.30;57.60
68011;DHT22;54794;48.348;7.878;2022-09-12T10:38:02;25.50;58.00
68011;DHT22;54794;48.348;7.878;2022-09-12T10:40:42;25.50;57.50
68011;DHT22;54794;48.348;7.878;2022-09-12T10:43:25;25.60;56.20
68011;DHT22;54794;48.348;7.878;2022-09-12T10:48:48;25.60;56.80
68011;DHT22;54794;48.348;7.878;2022-09-12T10:53:51;25.70;56.60
68011;DHT22;54794;48.348;7.878;2022-09-12T10:56:23;25.80;57.00
68011;DHT22;54794;48.348;7.878;2022-09-12T10:59:21;25.90;56.60
68011;DHT22;54794;48.348;7.878;2022-09-12T11:05:02;26.10;56.30
68011;DHT22;54794;48.348;7.878;2022-09-12T11:07:39;26.10;54.80
68011;DHT22;54794;48.348;7.878;2022-09-12T11:10:23;26.20;55.00
68011;DHT22;54794;48.348;7.878;2022-09-12T11:13:26;26.20;55.30
68011;DHT22;54794;48.348;7.878;2022-09-12T11:24:49;26.50;55.80
68011;DHT22;54794;48.348;7.878;2022-09-12T11:28:09;26.60;53.70
68011;DHT22;54794;48.348;7.878;2022-09-12T11:30:58;26.70;54.30
68011;DHT22;54794;48.348;7.878;2022-09-12T11:33:43;26.80;54.20
68011;DHT22;54794;48.348;7.878;2022-09-12T11:36:36;26.90;53.80
68011;DHT22;54794;48.348;7.878;2022-09-12T11:39:22;27.10;54.50
68011;DHT22;54794;48.348;7.878;2022-09-12T11:41:58;27.20;54.30
68011;DHT22;54794;48.348;7.878;2022-09-12T11:44:36;27.30;53.20
68011;DHT22;54794;48.348;7.878;2022-09-12T11:47:11;27.40;52.90
68011;DHT22;54794;48.348;7.878;2022-09-12T11:49:44;27.50;52.80
68011;DHT22;54794;48.348;7.878;2022-09-12T11:52:24;27.60;52.80
68011;DHT22;54794;48.348;7.878;2022-09-12T11:55:10;27.70;51.20
68011;DHT22;54794;48.348;7.878;2022-09-12T11:57:48;27.80;50.80
68011;DHT22;54794;48.348;7.878;2022-09-12T12:03:13;28.00;51.20
68011;DHT22;54794;48.348;7.878;2022-09-12T12:06:00;28.10;51.80
68011;DHT22;54794;48.348;7.878;2022-09-12T12:08:36;28.20;50.00
68011;DHT22;54794;48.348;7.878;2022-09-12T12:11:06;28.30;51.20
68011;DHT22;54794;48.348;7.878;2022-09-12T12:16:28;28.60;49.60
68011;DHT22;54794;48.348;7.878;2022-09-12T12:19:00;28.70;50.30
68011;DHT22;54794;48.348;7.878;2022-09-12T12:29:34;29.20;48.80
68011;DHT22;54794;48.348;7.878;2022-09-12T12:34:40;29.40;48.80
68011;DHT22;54794;48.348;7.878;2022-09-12T12:47:45;29.90;46.20
68011;DHT22;54794;48.348;7.878;2022-09-12T12:52:52;30.10;46.90
68011;DHT22;54794;48.348;7.878;2022-09-12T12:55:34;30.20;47.10
68011;DHT22;54794;48.348;7.878;2022-09-12T12:58:07;30.30;45.10
68011;DHT22;54794;48.348;7.878;2022-09-12T13:01:11;30.40;45.80
68011;DHT22;54794;48.348;7.878;2022-09-12T13:03:56;30.50;45.40
68011;DHT22;54794;48.348;7.878;2022-09-12T13:12:18;30.80;45.70
68011;DHT22;54794;48.348;7.878;2022-09-12T13:14:53;30.90;45.40
68011;DHT22;54794;48.348;7.878;2022-09-12T13:17:32;31.00;45.00
68011;DHT22;54794;48.348;7.878;2022-09-12T13:31:58;31.40;44.00
68011;DHT22;54794;48.348;7.878;2022-09-12T13:34:30;31.60;45.20
68011;DHT22;54794;48.348;7.878;2022-09-12T13:40:42;31.70;42.10
68011;DHT22;54794;48.348;7.878;2022-09-12T13:43:34;31.70;43.00
68011;DHT22;54794;48.348;7.878;2022-09-12T13:46:07;31.70;42.00
68011;DHT22;54794;48.348;7.878;2022-09-12T13:48:38;31.80;42.90
68011;DHT22;54794;48.348;7.878;2022-09-12T13:51:06;31.80;43.10
68011;DHT22;54794;48.348;7.878;2022-09-12T13:53:42;31.90;42.90
68011;DHT22;54794;48.348;7.878;2022-09-12T13:56:17;31.90;41.60
68011;DHT22;54794;48.348;7.878;2022-09-12T13:59:00;32.00;41.60
68011;DHT22;54794;48.348;7.878;2022-09-12T14:01:40;32.20;40.80
68011;DHT22;54794;48.348;7.878;2022-09-12T14:04:18;32.20;40.80
68011;DHT22;54794;48.348;7.878;2022-09-12T14:07:20;32.30;40.10
68011;DHT22;54794;48.348;7.878;2022-09-12T14:09:55;32.30;40.60
68011;DHT22;54794;48.348;7.878;2022-09-12T14:12:30;32.40;41.00
68011;DHT22;54794;48.348;7.878;2022-09-12T14:15:02;32.40;41.40
68011;DHT22;54794;48.348;7.878;2022-09-12T14:17:35;32.40;41.50
68011;DHT22;54794;48.348;7.878;2022-09-12T14:20:15;32.40;40.30
68011;DHT22;54794;48.348;7.878;2022-09-12T14:22:44;32.60;40.90
68011;DHT22;54794;48.348;7.878;2022-09-12T14:25:21;32.50;40.10
68011;DHT22;54794;48.348;7.878;2022-09-12T14:27:53;32.50;40.00
68011;DHT22;54794;48.348;7.878;2022-09-12T14:35:40;32.60;38.10
68011;DHT22;54794;48.348;7.878;2022-09-12T14:40:45;32.60;39.00
68011;DHT22;54794;48.348;7.878;2022-09-12T14:43:23;32.60;39.30
68011;DHT22;54794;48.348;7.878;2022-09-12T14:45:58;32.60;39.30
68011;DHT22;54794;48.348;7.878;2022-09-12T14:48:34;32.60;39.60
68011;DHT22;54794;48.348;7.878;2022-09-12T14:51:15;32.70;39.60
68011;DHT22;54794;48.348;7.878;2022-09-12T14:53:47;32.70;39.20
68011;DHT22;54794;48.348;7.878;2022-09-12T14:56:15;32.70;38.50
68011;DHT22;54794;48.348;7.878;2022-09-12T14:58:42;32.80;38.90
68011;DHT22;54794;48.348;7.878;2022-09-12T15:06:28;32.90;36.90
68011;DHT22;54794;48.348;7.878;2022-09-12T15:08:58;32.90;36.70
68011;DHT22;54794;48.348;7.878;2022-09-12T15:11:28;32.90;37.70
68011;DHT22;54794;48.348;7.878;2022-09-12T15:13:55;32.80;37.70
68011;DHT22;54794;48.348;7.878;2022-09-12T15:16:22;32.80;37.90
68011;DHT22;54794;48.348;7.878;2022-09-12T15:18:49;32.80;37.60
68011;DHT22;54794;48.348;7.878;2022-09-12T15:21:18;32.80;37.30
68011;DHT22;54794;48.348;7.878;2022-09-12T15:23:48;32.70;37.00
68011;DHT22;54794;48.348;7.878;2022-09-12T15:26:19;32.70;37.40
68011;DHT22;54794;48.348;7.878;2022-09-12T15:28:49;32.60;36.60
68011;DHT22;54794;48.348;7.878;2022-09-12T15:31:26;32.60;36.70
68011;DHT22;54794;48.348;7.878;2022-09-12T15:33:57;32.60;35.90
68011;DHT22;54794;48.348;7.878;2022-09-12T15:36:25;32.50;36.70
68011;DHT22;54794;48.348;7.878;2022-09-12T15:38:54;32.50;36.40
68011;DHT22;54794;48.348;7.878;2022-09-12T15:41:25;32.40;36.10
68011;DHT22;54794;48.348;7.878;2022-09-12T15:43:53;32.40;35.90
68011;DHT22;54794;48.348;7.878;2022-09-12T15:46:20;32.30;36.00
68011;DHT22;54794;48.348;7.878;2022-09-12T15:48:47;32.20;35.80
68011;DHT22;54794;48.348;7.878;2022-09-12T15:51:15;32.10;35.80
68011;DHT22;54794;48.348;7.878;2022-09-12T15:53:44;32.00;36.10
68011;DHT22;54794;48.348;7.878;2022-09-12T15:56:14;31.80;35.90
68011;DHT22;54794;48.348;7.878;2022-09-12T15:58:42;31.60;35.90
68011;DHT22;54794;48.348;7.878;2022-09-12T16:01:24;31.40;36.00
68011;DHT22;54794;48.348;7.878;2022-09-12T16:03:51;31.20;36.20
68011;DHT22;54794;48.348;7.878;2022-09-12T16:06:18;31.10;36.40
68011;DHT22;54794;48.348;7.878;2022-09-12T16:08:45;30.80;36.50
68011;DHT22;54794;48.348;7.878;2022-09-12T16:11:23;30.70;36.50
68011;DHT22;54794;48.348;7.878;2022-09-12T16:13:53;30.50;36.40
68011;DHT22;54794;48.348;7.878;2022-09-12T16:16:21;30.40;37.00
68011;DHT22;54794;48.348;7.878;2022-09-12T16:18:48;30.20;37.30
68011;DHT22;54794;48.348;7.878;2022-09-12T16:21:15;30.00;37.40
68011;DHT22;54794;48.348;7.878;2022-09-12T16:23:45;29.90;37.60
68011;DHT22;54794;48.348;7.878;2022-09-12T16:26:13;29.70;37.80
68011;DHT22;54794;48.348;7.878;2022-09-12T16:28:40;29.60;38.00
68011;DHT22;54794;48.348;7.878;2022-09-12T16:31:10;29.40;37.80
68011;DHT22;54794;48.348;7.878;2022-09-12T16:33:39;29.30;38.20
68011;DHT22;54794;48.348;7.878;2022-09-12T16:36:11;29.10;38.50
68011;DHT22;54794;48.348;7.878;2022-09-12T16:38:44;29.10;39.20
68011;DHT22;54794;48.348;7.878;2022-09-12T16:41:13;28.90;39.20
68011;DHT22;54794;48.348;7.878;2022-09-12T16:43:42;28.90;39.50
68011;DHT22;54794;48.348;7.878;2022-09-12T16:46:17;28.80;39.80
68011;DHT22;54794;48.348;7.878;2022-09-12T16:48:51;28.70;40.10
68011;DHT22;54794;48.348;7.878;2022-09-12T16:51:22;28.60;40.30
68011;DHT22;54794;48.348;7.878;2022-09-12T16:53:54;28.50;40.60
68011;DHT22;54794;48.348;7.878;2022-09-12T16:56:22;28.40;40.90
68011;DHT22;54794;48.348;7.878;2022-09-12T16:58:49;28.30;41.10
68011;DHT22;54794;48.348;7.878;2022-09-12T17:01:22;28.30;41.20
68011;DHT22;54794;48.348;7.878;2022-09-12T17:04:06;28.10;41.40
68011;DHT22;54794;48.348;7.878;2022-09-12T17:07:25;28.00;41.70
68011;DHT22;54794;48.348;7.878;2022-09-12T17:09:52;27.90;41.50
68011;DHT22;54794;48.348;7.878;2022-09-12T17:12:19;27.80;41.70
68011;DHT22;54794;48.348;7.878;2022-09-12T17:14:46;27.70;41.80
68011;DHT22;54794;48.348;7.878;2022-09-12T17:17:12;27.50;41.80
68011;DHT22;54794;48.348;7.878;2022-09-12T17:19:39;27.40;42.10
68011;DHT22;54794;48.348;7.878;2022-09-12T17:22:06;27.30;42.10
68011;DHT22;54794;48.348;7.878;2022-09-12T17:24:33;27.20;42.40
68011;DHT22;54794;48.348;7.878;2022-09-12T17:27:00;27.10;42.30
68011;DHT22;54794;48.348;7.878;2022-09-12T17:29:26;27.00;42.40
68011;DHT22;54794;48.348;7.878;2022-09-12T17:31:53;26.90;42.50
68011;DHT22;54794;48.348;7.878;2022-09-12T17:34:21;26.70;42.60
68011;DHT22;54794;48.348;7.878;2022-09-12T17:36:48;26.60;42.80
68011;DHT22;54794;48.348;7.878;2022-09-12T17:39:15;26.50;42.90
68011;DHT22;54794;48.348;7.878;2022-09-12T17:41:43;26.40;43.00
68011;DHT22;54794;48.348;7.878;2022-09-12T17:44:14;26.20;43.00
68011;DHT22;54794;48.348;7.878;2022-09-12T17:46:41;26.10;43.20
68011;DHT22;54794;48.348;7.878;2022-09-12T17:49:14;26.00;43.30
68011;DHT22;54794;48.348;7.878;2022-09-12T17:51:42;25.90;43.90
68011;DHT22;54794;48.348;7.878;2022-09-12T17:54:15;25.70;43.60
68011;DHT22;54794;48.348;7.878;2022-09-12T17:56:45;25.60;43.80
68011;DHT22;54794;48.348;7.878;2022-09-12T17:59:19;25.60;44.00
68011;DHT22;54794;48.348;7.878;2022-09-12T18:01:47;25.40;44.40
68011;DHT22;54794;48.348;7.878;2022-09-12T18:04:33;25.30;44.10
68011;DHT22;54794;48.348;7.878;2022-09-12T18:07:00;25.20;44.30
68011;DHT22;54794;48.348;7.878;2022-09-12T18:09:27;25.10;44.40
68011;DHT22;54794;48.348;7.878;2022-09-12T18:11:54;25.00;44.50
68011;DHT22;54794;48.348;7.878;2022-09-12T18:14:21;24.80;44.40
68011;DHT22;54794;48.348;7.878;2022-09-12T18:16:49;24.70;44.60
68011;DHT22;54794;48.348;7.878;2022-09-12T18:19:16;24.60;44.80
68011;DHT22;54794;48.348;7.878;2022-09-12T18:21:43;24.50;44.90
68011;DHT22;54794;48.348;7.878;2022-09-12T18:24:11;24.40;45.20
68011;DHT22;54794;48.348;7.878;2022-09-12T18:26:38;24.30;45.50
68011;DHT22;54794;48.348;7.878;2022-09-12T18:29:05;24.30;45.50
68011;DHT22;54794;48.348;7.878;2022-09-12T18:31:32;24.10;45.70
68011;DHT22;54794;48.348;7.878;2022-09-12T18:33:59;24.00;45.80
68011;DHT22;54794;48.348;7.878;2022-09-12T18:36:27;23.90;45.70
68011;DHT22;54794;48.348;7.878;2022-09-12T18:38:57;23.80;45.30
68011;DHT22;54794;48.348;7.878;2022-09-12T18:41:25;23.70;45.90
68011;DHT22;54794;48.348;7.878;2022-09-12T18:43:56;23.60;46.20
68011;DHT22;54794;48.348;7.878;2022-09-12T18:46:25;23.50;46.50
68011;DHT22;54794;48.348;7.878;2022-09-12T18:48:54;23.40;46.70
68011;DHT22;54794;48.348;7.878;2022-09-12T18:51:25;23.30;46.80
68011;DHT22;54794;48.348;7.878;2022-09-12T18:53:59;23.20;47.00
68011;DHT22;54794;48.348;7.878;2022-09-12T18:56:30;23.10;47.20
68011;DHT22;54794;48.348;7.878;2022-09-12T18:58:59;23.00;47.40
68011;DHT22;54794;48.348;7.878;2022-09-12T19:01:29;22.90;47.50
68011;DHT22;54794;48.348;7.878;2022-09-12T19:03:58;22.80;47.60
68011;DHT22;54794;48.348;7.878;2022-09-12T19:06:29;22.80;47.60